createdAt,value
2018-03-27T00:01:20.023Z,4.93
2018-03-27T00:03:48.033Z,3.80
2018-03-27T00:06:16.074Z,2.80
2018-03-27T00:08:44.190Z,3.00
2018-03-27T00:11:12.224Z,3.97
2018-03-27T00:13:40.241Z,3.40
2018-03-27T00:16:08.298Z,3.67
2018-03-27T00:18:36.364Z,4.50
2018-03-27T00:21:04.448Z,4.03
2018-03-27T00:23:32.475Z,3.83
2018-03-27T00:26:00.523Z,3.70
2018-03-27T00:28:40.494Z,3.73
2018-03-27T00:31:20.122Z,4.70
2018-03-27T00:33:59.831Z,2.50
2018-03-27T00:36:39.791Z,3.40
2018-03-27T00:39:19.601Z,2.40
2018-03-27T00:45:05.621Z,1.87
2018-03-27T00:47:33.587Z,2.10
2018-03-27T00:50:01.661Z,1.50
2018-03-27T00:52:29.744Z,1.47
2018-03-27T00:54:57.878Z,2.00
2018-03-27T00:57:26.104Z,1.17
2018-03-27T00:59:54.155Z,1.47
2018-03-27T01:02:22.257Z,3.00
2018-03-27T01:04:50.328Z,3.10
2018-03-27T01:07:18.395Z,5.10
2018-03-27T01:09:46.423Z,5.07
2018-03-27T01:12:14.536Z,3.27
2018-03-27T01:14:42.639Z,2.80
2018-03-27T01:17:10.680Z,3.10
2018-03-27T01:19:38.890Z,3.50
2018-03-27T01:22:07.023Z,3.93
2018-03-27T01:24:35.175Z,4.37
2018-03-27T01:27:03.248Z,1.93
2018-03-27T01:29:31.292Z,2.70
2018-03-27T01:31:59.319Z,2.30
2018-03-27T01:34:27.376Z,2.40
2018-03-27T01:36:55.415Z,2.70
2018-03-27T01:39:23.412Z,2.40
2018-03-27T01:41:51.427Z,2.43
2018-03-27T01:44:19.468Z,2.10
2018-03-27T01:46:47.565Z,2.10
2018-03-27T01:49:15.660Z,1.97
2018-03-27T01:51:43.701Z,2.33
2018-03-27T01:54:11.772Z,2.40
2018-03-27T01:56:39.790Z,2.00
2018-03-27T01:59:08.268Z,4.30
2018-03-27T02:01:36.269Z,6.40
2018-03-27T02:04:04.274Z,3.93
2018-03-27T02:06:32.303Z,4.03
2018-03-27T02:09:00.324Z,5.30
2018-03-27T02:11:34.070Z,5.77
2018-03-27T02:14:07.544Z,8.17
2018-03-27T02:16:41.253Z,5.33
2018-03-27T02:19:14.851Z,6.20
2018-03-27T02:21:42.730Z,6.00
2018-03-27T02:24:11.374Z,6.00
2018-03-27T02:26:39.423Z,6.60
2018-03-27T02:29:07.486Z,5.03
2018-03-27T02:31:35.552Z,5.30
2018-03-27T02:34:03.572Z,3.80
2018-03-27T02:36:31.622Z,3.07
2018-03-27T02:38:59.691Z,3.23
2018-03-27T02:41:27.793Z,4.10
2018-03-27T02:43:55.846Z,5.73
2018-03-27T02:46:24.000Z,8.93
2018-03-27T02:48:52.142Z,5.50
2018-03-27T02:51:20.279Z,7.27
2018-03-27T02:53:48.375Z,6.30
2018-03-27T02:56:16.421Z,11.00
2018-03-27T02:58:44.605Z,10.10
2018-03-27T03:01:12.930Z,9.20
2018-03-27T03:03:41.033Z,9.53
2018-03-27T03:06:09.072Z,10.30
2018-03-27T03:08:37.047Z,11.10
2018-03-27T03:11:05.157Z,11.97
2018-03-27T03:13:33.290Z,10.60
2018-03-27T03:16:01.391Z,11.47
2018-03-27T03:18:29.458Z,15.70
2018-03-27T03:20:57.438Z,17.17
2018-03-27T03:23:25.459Z,14.80
2018-03-27T03:25:53.522Z,14.50
2018-03-27T03:28:21.611Z,14.13
2018-03-27T03:30:49.657Z,17.20
2018-03-27T03:33:17.714Z,14.43
2018-03-27T03:35:45.784Z,20.00
2018-03-27T03:38:13.831Z,15.30
2018-03-27T03:40:41.901Z,16.00
2018-03-27T03:43:09.922Z,17.60
2018-03-27T03:45:38.003Z,16.40
2018-03-27T03:48:06.022Z,18.40
2018-03-27T03:50:34.112Z,21.77
2018-03-27T03:53:02.109Z,20.73
2018-03-27T03:55:30.147Z,29.27
2018-03-27T03:57:58.289Z,38.63
2018-03-27T04:00:26.448Z,32.70
2018-03-27T04:02:54.886Z,21.30
2018-03-27T04:05:22.942Z,20.57
2018-03-27T04:07:50.955Z,15.67
2018-03-27T04:10:19.013Z,20.63
2018-03-27T04:12:47.071Z,21.57
2018-03-27T04:15:15.095Z,19.57
2018-03-27T04:17:43.146Z,20.90
2018-03-27T04:20:11.214Z,23.10
2018-03-27T04:22:39.290Z,18.50
2018-03-27T04:25:07.312Z,19.57
2018-03-27T04:27:35.326Z,18.37
2018-03-27T04:30:03.366Z,20.53
2018-03-27T04:32:31.436Z,20.33
2018-03-27T04:34:59.612Z,21.10
2018-03-27T04:37:27.696Z,21.70
2018-03-27T04:39:55.719Z,21.37
2018-03-27T04:42:23.767Z,27.93
2018-03-27T04:44:51.751Z,37.23
2018-03-27T04:47:19.823Z,38.30
2018-03-27T04:49:47.839Z,27.43
2018-03-27T04:52:15.934Z,18.77
2018-03-27T04:54:43.991Z,19.00
2018-03-27T04:57:12.051Z,16.47
2018-03-27T04:59:40.112Z,18.13
2018-03-27T05:02:08.195Z,17.97
2018-03-27T05:04:36.343Z,21.00
2018-03-27T05:07:04.370Z,29.30
2018-03-27T05:09:32.362Z,21.80
2018-03-27T05:12:00.445Z,24.90
2018-03-27T05:14:28.475Z,34.97
2018-03-27T05:16:56.497Z,40.27
2018-03-27T05:19:24.580Z,34.17
2018-03-27T05:21:52.605Z,28.57
2018-03-27T05:24:20.743Z,21.00
2018-03-27T05:26:48.755Z,30.23
2018-03-27T05:29:16.847Z,19.13
2018-03-27T05:31:45.122Z,25.33
2018-03-27T05:34:13.232Z,26.00
2018-03-27T05:36:41.367Z,28.20
2018-03-27T05:39:09.703Z,37.27
2018-03-27T05:41:37.812Z,41.53
2018-03-27T05:44:05.896Z,44.53
2018-03-27T05:46:33.967Z,37.77
2018-03-27T05:49:02.025Z,30.17
2018-03-27T05:51:30.027Z,32.70
2018-03-27T05:53:58.102Z,35.17
2018-03-27T05:56:26.250Z,35.90
2018-03-27T05:58:54.333Z,40.93
2018-03-27T06:01:22.352Z,40.67
2018-03-27T06:03:50.508Z,31.87
2018-03-27T06:06:18.939Z,27.60
2018-03-27T06:08:46.941Z,23.30
2018-03-27T06:11:15.072Z,17.10
2018-03-27T06:13:43.050Z,14.20
2018-03-27T06:16:11.212Z,11.10
2018-03-27T06:18:39.335Z,8.30
2018-03-27T06:21:07.423Z,8.67
2018-03-27T06:23:35.454Z,12.90
2018-03-27T06:26:03.563Z,12.00
2018-03-27T06:28:31.724Z,26.73
2018-03-27T06:30:59.876Z,54.60
2018-03-27T06:33:27.968Z,17.60
2018-03-27T06:35:56.058Z,13.40
2018-03-27T06:38:24.035Z,14.27
2018-03-27T06:40:52.107Z,14.93
2018-03-27T06:43:20.139Z,8.20
2018-03-27T06:45:48.168Z,9.57
2018-03-27T06:48:16.251Z,10.47
2018-03-27T06:50:44.291Z,12.70
2018-03-27T06:53:12.333Z,8.10
2018-03-27T06:55:40.450Z,10.90
2018-03-27T06:58:08.562Z,12.87
2018-03-27T07:00:36.766Z,11.50
2018-03-27T07:03:04.862Z,11.80
2018-03-27T07:05:32.969Z,13.67
2018-03-27T07:08:01.445Z,13.73
2018-03-27T07:10:29.558Z,22.27
2018-03-27T07:12:57.629Z,18.10
2018-03-27T07:15:25.679Z,14.77
2018-03-27T07:17:53.718Z,13.70
2018-03-27T07:20:21.798Z,22.97
2018-03-27T07:22:49.888Z,26.70
2018-03-27T07:25:17.867Z,16.97
2018-03-27T07:27:45.944Z,16.60
2018-03-27T07:30:13.996Z,20.93
2018-03-27T07:32:42.067Z,18.30
2018-03-27T07:35:10.129Z,23.57
2018-03-27T07:37:38.166Z,18.73
2018-03-27T07:40:06.229Z,24.47
2018-03-27T07:42:34.312Z,21.27
2018-03-27T07:45:02.402Z,20.30
2018-03-27T07:47:30.572Z,18.10
2018-03-27T07:49:58.635Z,17.10
2018-03-27T07:52:26.687Z,17.33
2018-03-27T07:54:54.855Z,17.00
2018-03-27T07:57:23.611Z,30.20
2018-03-27T07:59:52.054Z,21.77
2018-03-27T08:02:20.620Z,22.70
2018-03-27T08:04:49.189Z,14.07
2018-03-27T08:07:17.428Z,17.53
2018-03-27T08:09:46.016Z,18.93
2018-03-27T08:12:14.138Z,18.20
2018-03-27T08:14:42.295Z,17.67
2018-03-27T08:17:10.367Z,19.63
2018-03-27T08:19:38.386Z,15.77
2018-03-27T08:22:06.476Z,16.10
2018-03-27T08:24:34.617Z,13.73
2018-03-27T08:27:02.697Z,11.20
2018-03-27T08:29:30.748Z,13.57
2018-03-27T08:31:58.768Z,14.87
2018-03-27T08:34:26.925Z,28.47
2018-03-27T08:36:55.006Z,20.00
2018-03-27T08:39:23.515Z,19.70
2018-03-27T08:41:51.895Z,23.90
2018-03-27T08:44:19.960Z,20.40
2018-03-27T08:46:48.086Z,11.70
2018-03-27T08:49:16.155Z,9.50
2018-03-27T08:51:44.228Z,12.73
2018-03-27T08:54:12.267Z,9.07
2018-03-27T08:56:40.430Z,8.97
2018-03-27T08:59:08.544Z,8.07
2018-03-27T09:01:36.604Z,8.67
2018-03-27T09:04:04.750Z,8.77
2018-03-27T09:06:32.870Z,11.37
2018-03-27T09:09:01.041Z,13.53
2018-03-27T09:11:29.348Z,7.73
2018-03-27T09:13:57.452Z,12.90
2018-03-27T09:16:25.501Z,6.00
2018-03-27T09:18:53.558Z,8.93
2018-03-27T09:21:21.614Z,6.40
2018-03-27T09:23:49.688Z,7.43
2018-03-27T09:26:17.772Z,8.33
2018-03-27T09:28:45.835Z,9.80
2018-03-27T09:31:14.010Z,11.13
2018-03-27T09:33:42.116Z,12.40
2018-03-27T09:36:10.227Z,14.97
2018-03-27T09:38:38.305Z,14.90
2018-03-27T09:41:06.370Z,14.87
2018-03-27T09:43:34.418Z,18.97
2018-03-27T09:46:02.515Z,21.00
2018-03-27T09:48:30.595Z,20.43
2018-03-27T09:50:58.669Z,18.67
2018-03-27T09:53:26.846Z,18.10
2018-03-27T09:55:54.910Z,19.00
2018-03-27T09:58:23.026Z,24.37
2018-03-27T10:00:51.231Z,20.63
2018-03-27T10:03:19.250Z,9.77
2018-03-27T10:05:47.353Z,7.23
2018-03-27T10:08:15.596Z,5.53
2018-03-27T10:10:43.723Z,5.43
2018-03-27T10:13:12.065Z,5.37
2018-03-27T10:15:40.171Z,5.30
2018-03-27T10:18:08.280Z,5.60
2018-03-27T10:20:36.384Z,3.70
2018-03-27T10:23:04.460Z,5.10
2018-03-27T10:25:32.466Z,4.60
2018-03-27T10:28:00.471Z,3.90
2018-03-27T10:30:28.550Z,4.20
2018-03-27T10:32:56.576Z,4.90
2018-03-27T10:35:24.669Z,3.07
2018-03-27T10:37:52.764Z,3.30
2018-03-27T10:40:21.698Z,3.90
2018-03-27T10:42:49.924Z,3.83
2018-03-27T10:45:17.942Z,5.10
2018-03-27T10:47:45.978Z,4.53
2018-03-27T10:50:14.137Z,1.93
2018-03-27T10:52:42.213Z,1.77
2018-03-27T10:55:10.358Z,3.00
2018-03-27T10:57:38.470Z,2.20
2018-03-27T11:00:06.572Z,2.43
2018-03-27T11:02:34.679Z,4.00
2018-03-27T11:05:02.706Z,3.13
2018-03-27T11:07:30.798Z,3.40
2018-03-27T11:09:58.912Z,1.33
2018-03-27T11:12:27.036Z,1.00
2018-03-27T11:14:55.563Z,1.40
2018-03-27T11:17:23.689Z,2.00
2018-03-27T11:19:51.728Z,2.00
2018-03-27T11:22:19.794Z,1.90
2018-03-27T11:24:47.868Z,3.10
2018-03-27T11:27:15.848Z,1.30
2018-03-27T11:29:43.887Z,4.93
2018-03-27T11:32:11.969Z,2.50
2018-03-27T11:34:40.045Z,3.40
2018-03-27T11:37:08.080Z,2.10
2018-03-27T11:39:36.260Z,1.77
2018-03-27T11:42:04.344Z,5.10
2018-03-27T11:44:32.478Z,2.90
2018-03-27T11:47:00.545Z,4.33
2018-03-27T11:49:28.626Z,4.07
2018-03-27T11:51:56.690Z,3.50
2018-03-27T11:54:24.711Z,3.10
2018-03-27T11:56:52.814Z,1.70
2018-03-27T11:59:20.842Z,3.70
2018-03-27T12:01:48.991Z,2.53
2018-03-27T12:04:17.078Z,2.07
2018-03-27T12:06:45.103Z,1.43
2018-03-27T12:09:13.248Z,3.70
2018-03-27T12:11:41.298Z,3.47
2018-03-27T12:14:09.381Z,4.00
2018-03-27T12:16:37.673Z,4.30
2018-03-27T12:19:05.723Z,2.70
2018-03-27T12:21:33.763Z,2.07
2018-03-27T12:24:01.797Z,2.27
2018-03-27T12:26:29.914Z,2.33
2018-03-27T12:28:57.987Z,2.00
2018-03-27T12:31:26.067Z,3.90
2018-03-27T12:33:54.236Z,2.90
2018-03-27T12:36:23.048Z,2.83
2018-03-27T12:38:52.029Z,1.50
2018-03-27T12:41:20.254Z,0.70
2018-03-27T12:43:48.366Z,0.90
2018-03-27T12:46:17.094Z,1.10
2018-03-27T12:48:45.253Z,3.40
2018-03-27T12:51:13.288Z,2.13
2018-03-27T12:53:43.196Z,2.50
2018-03-27T12:56:11.276Z,5.30
2018-03-27T12:58:39.286Z,2.47
2018-03-27T13:01:07.360Z,3.17
2018-03-27T13:03:35.366Z,4.80
2018-03-27T13:06:03.555Z,7.17
2018-03-27T13:08:31.518Z,6.83
2018-03-27T13:10:59.543Z,5.80
2018-03-27T13:13:27.650Z,4.80
2018-03-27T13:15:55.760Z,4.30
2018-03-27T13:18:23.947Z,2.27
2018-03-27T13:20:52.054Z,2.13
2018-03-27T13:23:20.102Z,1.27
2018-03-27T13:25:48.157Z,3.33
2018-03-27T13:28:16.291Z,5.00
2018-03-27T13:30:44.381Z,5.50
2018-03-27T13:33:12.442Z,2.57
2018-03-27T13:35:40.443Z,18.27
2018-03-27T13:38:08.548Z,23.60
2018-03-27T13:40:36.614Z,36.97
2018-03-27T13:43:04.691Z,5.77
2018-03-27T13:45:32.558Z,2.57
2018-03-27T13:48:00.605Z,4.70
2018-03-27T13:50:28.738Z,5.20
2018-03-27T13:52:56.743Z,1.30
2018-03-27T13:55:24.722Z,2.30
2018-03-27T13:57:52.706Z,1.63
2018-03-27T14:00:20.721Z,3.00
2018-03-27T14:02:48.726Z,1.83
2018-03-27T14:05:16.730Z,3.00
2018-03-27T14:07:44.743Z,2.07
2018-03-27T14:10:12.743Z,2.97
2018-03-27T14:12:40.653Z,2.13
2018-03-27T14:15:08.715Z,3.80
2018-03-27T14:17:36.815Z,4.03
2018-03-27T14:20:05.041Z,7.17
2018-03-27T14:22:33.049Z,2.40
2018-03-27T14:25:01.038Z,5.60
2018-03-27T14:27:29.036Z,2.70
2018-03-27T14:29:57.085Z,2.63
2018-03-27T14:32:25.115Z,2.07
2018-03-27T14:34:53.084Z,0.80
2018-03-27T14:37:21.840Z,5.00
2018-03-27T14:39:50.862Z,0.90
2018-03-27T14:42:18.852Z,1.80
2018-03-27T14:44:46.863Z,2.00
2018-03-27T14:47:17.425Z,1.00
2018-03-27T14:49:45.440Z,1.03
2018-03-27T14:52:13.506Z,0.90
2018-03-27T14:54:41.558Z,1.73
2018-03-27T14:59:55.164Z,7.33
2018-03-27T15:02:23.251Z,2.13
2018-03-27T15:04:52.016Z,4.20
2018-03-27T15:07:20.019Z,3.30
2018-03-27T15:09:48.082Z,5.33
2018-03-27T15:12:16.095Z,5.63
2018-03-27T15:14:44.172Z,3.97
2018-03-27T15:17:12.154Z,3.40
2018-03-27T15:19:40.281Z,6.73
2018-03-27T15:22:08.649Z,30.40
2018-03-27T15:24:36.648Z,13.20
2018-03-27T15:27:04.677Z,8.10
2018-03-27T15:29:32.723Z,4.97
2018-03-27T15:32:00.757Z,5.30
2018-03-27T15:34:28.870Z,4.60
2018-03-27T15:36:56.945Z,4.90
2018-03-27T15:39:24.937Z,7.60
2018-03-27T15:41:52.947Z,10.83
2018-03-27T15:44:21.029Z,13.80
2018-03-27T15:46:49.067Z,16.73
2018-03-27T15:49:17.157Z,15.67
2018-03-27T15:51:45.171Z,14.27
2018-03-27T15:54:13.184Z,15.80
2018-03-27T15:56:41.223Z,14.73
2018-03-27T15:59:09.245Z,11.53
2018-03-27T16:01:37.344Z,13.00
2018-03-27T16:04:05.548Z,14.70
2018-03-27T16:06:33.576Z,15.60
2018-03-27T16:09:02.002Z,10.90
2018-03-27T16:11:30.073Z,15.23
2018-03-27T16:13:58.265Z,42.17
2018-03-27T16:16:26.918Z,28.33
2018-03-27T16:18:55.710Z,21.50
2018-03-27T16:21:24.195Z,35.73
2018-03-27T16:23:52.667Z,50.70
2018-03-27T16:26:21.138Z,36.43
2018-03-27T16:28:49.489Z,32.00
2018-03-27T16:31:18.106Z,25.73
2018-03-27T16:33:46.496Z,29.80
2018-03-27T16:36:15.002Z,29.37
2018-03-27T16:38:43.548Z,28.20
2018-03-27T16:41:11.508Z,38.17
2018-03-27T16:43:40.609Z,38.50
2018-03-27T16:46:08.883Z,33.10
2018-03-27T16:48:37.397Z,36.50
2018-03-27T16:51:06.149Z,49.53
2018-03-27T16:53:34.805Z,58.17
2018-03-27T16:56:03.489Z,56.80
2018-03-27T16:58:31.904Z,49.83
2018-03-27T17:01:00.438Z,32.93
2018-03-27T17:03:29.066Z,57.30
2018-03-27T17:05:57.478Z,52.13
2018-03-27T17:08:25.926Z,67.40
2018-03-27T17:10:54.230Z,67.47
2018-03-27T17:13:22.690Z,92.53
2018-03-27T17:15:51.259Z,50.87
2018-03-27T17:18:19.656Z,43.73
2018-03-27T17:20:48.540Z,56.63
2018-03-27T17:23:17.422Z,54.63
2018-03-27T17:25:45.871Z,49.83
2018-03-27T17:28:14.294Z,45.53
2018-03-27T17:30:42.765Z,39.53
2018-03-27T17:33:11.178Z,45.40
2018-03-27T17:35:39.718Z,43.33
2018-03-27T17:38:08.578Z,30.63
2018-03-27T17:40:37.195Z,30.10
2018-03-27T17:43:05.746Z,28.30
2018-03-27T17:45:34.096Z,28.00
2018-03-27T17:48:02.938Z,32.37
2018-03-27T17:50:31.428Z,36.10
2018-03-27T17:53:00.074Z,31.17
2018-03-27T17:55:28.690Z,45.43
2018-03-27T17:57:57.028Z,35.50
2018-03-27T18:00:25.541Z,33.57
2018-03-27T18:02:53.817Z,56.07
2018-03-27T18:05:22.104Z,44.73
2018-03-27T18:07:50.579Z,41.70
2018-03-27T18:10:19.108Z,34.83
2018-03-27T18:12:47.875Z,23.07
2018-03-27T18:15:16.745Z,23.03
2018-03-27T18:17:45.332Z,34.37
2018-03-27T18:20:14.132Z,30.77
2018-03-27T18:22:42.413Z,27.93
2018-03-27T18:25:10.834Z,25.43
2018-03-27T18:27:39.751Z,26.13
2018-03-27T18:30:08.038Z,37.87
2018-03-27T18:32:36.332Z,30.20
2018-03-27T18:35:05.195Z,34.50
2018-03-27T18:37:33.679Z,27.07
2018-03-27T18:40:02.162Z,40.37
2018-03-27T18:42:30.641Z,51.87
2018-03-27T18:44:59.017Z,45.97
2018-03-27T18:47:27.404Z,33.80
2018-03-27T18:49:55.910Z,37.93
2018-03-27T18:52:24.455Z,37.23
2018-03-27T18:54:53.016Z,36.70
2018-03-27T18:57:21.536Z,49.50
2018-03-27T18:59:50.203Z,56.20
2018-03-27T19:02:18.781Z,58.47
2018-03-27T19:04:47.234Z,70.67
2018-03-27T19:07:15.719Z,77.73
2018-03-27T19:09:44.336Z,58.40
2018-03-27T19:12:13.088Z,54.00
2018-03-27T19:14:41.517Z,57.57
2018-03-27T19:17:10.186Z,41.83
2018-03-27T19:19:38.602Z,35.43
2018-03-27T19:22:07.054Z,72.83
2018-03-27T19:24:35.555Z,58.70
2018-03-27T19:27:03.914Z,40.03
2018-03-27T19:29:32.703Z,25.17
2018-03-27T19:32:01.442Z,24.00
2018-03-27T19:34:29.763Z,26.00
2018-03-27T19:36:58.534Z,35.40
2018-03-27T19:39:26.735Z,30.23
2018-03-27T19:41:55.296Z,37.03
2018-03-27T19:44:23.818Z,34.03
2018-03-27T19:46:52.509Z,45.87
2018-03-27T19:49:20.967Z,36.27
2018-03-27T19:51:49.489Z,36.90
2018-03-27T19:54:18.328Z,36.30
2018-03-27T19:56:46.771Z,37.03
2018-03-27T19:59:15.270Z,39.63
2018-03-27T20:01:44.158Z,33.27
2018-03-27T20:04:12.568Z,37.83
2018-03-27T20:06:41.330Z,36.63
2018-03-27T20:09:09.718Z,46.00
2018-03-27T20:11:38.181Z,47.80
2018-03-27T20:14:06.838Z,52.33
2018-03-27T20:16:35.267Z,54.97
2018-03-27T20:19:03.837Z,32.30
2018-03-27T20:21:32.520Z,26.87
2018-03-27T20:24:00.911Z,24.10
2018-03-27T20:26:29.494Z,20.27
2018-03-27T20:28:58.010Z,21.27
2018-03-27T20:31:26.739Z,20.60
2018-03-27T20:33:55.246Z,17.70
2018-03-27T20:36:23.712Z,21.20
2018-03-27T20:38:51.999Z,28.10
2018-03-27T20:41:20.665Z,26.13
2018-03-27T20:43:49.044Z,25.93
2018-03-27T20:46:17.739Z,17.90
2018-03-27T20:48:46.410Z,17.07
2018-03-27T20:51:14.660Z,14.57
2018-03-27T20:53:43.488Z,15.40
2018-03-27T20:56:12.065Z,14.30
2018-03-27T20:58:40.538Z,16.37
2018-03-27T21:01:09.036Z,20.03
2018-03-27T21:03:37.857Z,16.43
2018-03-27T21:06:06.186Z,14.53
2018-03-27T21:08:34.671Z,9.53
2018-03-27T21:11:02.954Z,9.17
2018-03-27T21:13:31.622Z,8.90
2018-03-27T21:15:59.823Z,10.27
2018-03-27T21:18:28.381Z,8.93
2018-03-27T21:20:56.759Z,7.30
2018-03-27T21:23:25.261Z,5.13
2018-03-27T21:25:53.622Z,3.87
2018-03-27T21:28:21.897Z,3.47
2018-03-27T21:30:50.280Z,3.43
2018-03-27T21:33:18.983Z,3.40
2018-03-27T21:35:47.250Z,4.00
2018-03-27T21:38:15.733Z,3.50
2018-03-27T21:40:44.106Z,4.17
2018-03-27T21:43:12.565Z,7.20
2018-03-27T21:45:41.050Z,14.83
2018-03-27T21:48:09.345Z,13.13
2018-03-27T21:50:38.145Z,16.97
2018-03-27T21:53:06.902Z,21.80
2018-03-27T21:55:35.702Z,17.23
2018-03-27T21:58:04.105Z,16.10
2018-03-27T22:00:32.557Z,17.60
2018-03-27T22:03:01.340Z,16.33
2018-03-27T22:05:30.035Z,15.83
2018-03-27T22:07:58.636Z,16.03
2018-03-27T22:10:27.086Z,15.87
2018-03-27T22:12:55.261Z,17.97
2018-03-27T22:15:23.646Z,17.40
2018-03-27T22:17:52.223Z,14.53
2018-03-27T22:20:20.708Z,14.60
2018-03-27T22:22:49.298Z,16.20
2018-03-27T22:25:17.866Z,14.37
2018-03-27T22:27:46.296Z,14.10
2018-03-27T22:30:14.862Z,11.37
2018-03-27T22:32:43.540Z,11.17
2018-03-27T22:35:12.307Z,11.67
2018-03-27T22:37:40.601Z,10.50
2018-03-27T22:40:09.370Z,8.30
2018-03-27T22:42:37.641Z,7.97
2018-03-27T22:45:06.121Z,8.47
2018-03-27T22:47:34.719Z,8.37
2018-03-27T22:50:03.355Z,7.73
2018-03-27T22:52:31.795Z,17.80
2018-03-27T22:55:00.352Z,8.30
2018-03-27T22:57:28.935Z,14.20
2018-03-27T22:59:57.376Z,8.10
2018-03-27T23:02:25.894Z,10.27
2018-03-27T23:04:54.476Z,10.40
2018-03-27T23:07:22.823Z,8.80
2018-03-27T23:09:51.233Z,8.57
2018-03-27T23:12:20.328Z,7.77
2018-03-27T23:14:48.982Z,8.33
2018-03-27T23:17:17.407Z,9.40
2018-03-27T23:19:46.080Z,9.50
2018-03-27T23:22:26.606Z,10.20
2018-03-27T23:24:55.145Z,10.50
2018-03-27T23:27:24.005Z,11.50
2018-03-27T23:29:52.612Z,15.43
2018-03-27T23:32:22.107Z,45.23
2018-03-27T23:34:50.384Z,23.87
2018-03-27T23:37:19.319Z,10.17
2018-03-27T23:39:47.750Z,8.80
2018-03-27T23:42:16.322Z,7.33
2018-03-27T23:44:44.610Z,6.10
2018-03-27T23:47:13.110Z,7.07
2018-03-27T23:49:41.663Z,7.10
2018-03-27T23:52:09.893Z,7.87
2018-03-27T23:54:38.417Z,8.13
2018-03-27T23:57:06.744Z,9.50
2018-03-27T23:59:35.087Z,6.83
